Time;durP1;ratioP1;P1;durP2;ratioP2;P2;SDS_P1;SDS_P2;PMS_P1;PMS_P2;Temp;Humidity;BMP_temperature;BMP_pressure;BME280_temperature;BME280_humidity;BME280_pressure;Samples;Min_cycle;Max_cycle;Signal;HPM_P1;HPM_P2
2022/04/25 00:02:20;;;;;;;11.57;5.97;;;;;9.80;100376.00;;;;10568211;27;20188;-77
2022/04/25 00:07:22;;;;;;;7.37;5.20;;;;;9.70;100369.00;;;;10509762;28;20242;-77
2022/04/25 00:12:24;;;;;;;13.70;6.60;;;;;9.60;100379.00;;;;10489571;28;20201;-77
2022/04/25 00:17:26;;;;;;;10.87;5.73;;;;;9.50;100379.00;;;;10489055;28;20595;-76
2022/04/25 00:22:28;;;;;;;9.37;5.27;;;;;9.40;100378.00;;;;10532747;27;20184;-77
2022/04/25 00:27:30;;;;;;;9.67;5.60;;;;;9.30;100375.00;;;;10513601;28;20189;-76
2022/04/25 00:32:32;;;;;;;11.03;5.57;;;;;9.20;100382.00;;;;10488342;28;20559;-77
2022/04/25 00:37:34;;;;;;;10.17;5.73;;;;;9.10;100376.00;;;;10521671;28;20258;-77
2022/04/25 00:42:36;;;;;;;10.30;5.20;;;;;9.10;100380.00;;;;10472163;28;20228;-76
2022/04/25 00:47:39;;;;;;;8.00;5.67;;;;;9.00;100375.00;;;;10492809;28;20257;-76
2022/04/25 00:52:42;;;;;;;9.67;6.03;;;;;8.90;100374.00;;;;10545556;28;20658;-76
2022/04/25 00:57:44;;;;;;;10.70;5.37;;;;;8.90;100367.00;;;;10549376;28;20216;-81
2022/04/25 01:02:46;;;;;;;12.73;5.93;;;;;8.80;100374.00;;;;10537185;28;20666;-80
2022/04/25 01:07:48;;;;;;;9.67;6.00;;;;;8.70;100370.00;;;;10523038;28;20256;-80
2022/04/25 01:12:50;;;;;;;12.33;6.60;;;;;8.60;100367.00;;;;10539575;28;20188;-80
2022/04/25 01:17:53;;;;;;;12.13;6.50;;;;;8.50;100372.00;;;;10536590;28;20246;-81
2022/04/25 01:28:25;;;;;;;10.17;6.30;;;;;8.40;100369.00;;;;10576994;27;20664;-80
2022/04/25 01:33:27;;;;;;;12.73;6.73;;;;;8.30;100366.00;;;;10492027;28;20216;-80
2022/04/25 01:38:28;;;;;;;15.37;6.83;;;;;8.20;100371.00;;;;10492552;28;20188;-81
2022/04/25 01:43:37;;;;;;;11.50;7.10;;;;;8.10;100375.00;;;;10508834;28;20254;-80
2022/04/25 01:48:39;;;;;;;12.30;7.33;;;;;8.00;100374.00;;;;10499470;28;20230;-81
2022/04/25 01:53:41;;;;;;;15.10;7.33;;;;;7.90;100384.00;;;;10544840;27;20208;-80
2022/04/25 01:58:43;;;;;;;13.00;7.30;;;;;7.80;100382.00;;;;10576106;27;20184;-80
2022/04/25 02:03:47;;;;;;;10.37;7.33;;;;;7.70;100386.00;;;;10508455;28;20227;-80
2022/04/25 02:08:49;;;;;;;14.07;8.70;;;;;7.60;100396.00;;;;10491596;28;20300;-81
2022/04/25 02:13:52;;;;;;;11.77;7.10;;;;;7.60;100394.00;;;;10508161;28;20213;-81
2022/04/25 02:18:54;;;;;;;10.70;7.77;;;;;7.60;100395.00;;;;10507969;28;20192;-80
2022/04/25 02:23:56;;;;;;;17.20;7.53;;;;;7.50;100391.00;;;;10505052;28;20230;-81
2022/04/25 02:28:58;;;;;;;15.30;8.90;;;;;7.50;100394.00;;;;10492460;28;20250;-81
2022/04/25 02:34:00;;;;;;;14.23;8.80;;;;;7.50;100390.00;;;;10502100;28;20212;-81
2022/04/25 02:39:03;;;;;;;17.40;8.80;;;;;7.40;100387.00;;;;10516320;28;20208;-80
2022/04/25 02:44:04;;;;;;;15.70;9.13;;;;;7.30;100388.00;;;;10549753;28;20180;-81
2022/04/25 02:49:06;;;;;;;13.03;8.90;;;;;7.20;100390.00;;;;10516822;28;20621;-81
2022/04/25 02:54:08;;;;;;;13.27;9.20;;;;;7.20;100396.00;;;;10559356;27;20215;-81
2022/04/25 02:59:10;;;;;;;12.50;9.43;;;;;7.10;100388.00;;;;10585713;27;20199;-81
2022/04/25 03:04:12;;;;;;;16.53;8.97;;;;;7.00;100395.00;;;;10502384;28;20610;-80
2022/04/25 03:09:14;;;;;;;12.57;8.93;;;;;6.90;100400.00;;;;10515087;28;20219;-81
2022/04/25 03:14:16;;;;;;;19.97;9.63;;;;;6.90;100388.00;;;;10481337;28;20237;-80
2022/04/25 03:19:18;;;;;;;15.77;11.43;;;;;6.90;100400.00;;;;10514174;28;20254;-80
2022/04/25 03:24:20;;;;;;;25.30;10.70;;;;;6.90;100399.00;;;;10554926;27;20658;-81
2022/04/25 03:29:22;;;;;;;17.53;11.20;;;;;6.80;100399.00;;;;10564389;27;20195;-80
2022/04/25 03:34:24;;;;;;;16.07;10.93;;;;;6.80;100404.00;;;;10581312;27;20210;-80
2022/04/25 03:39:26;;;;;;;17.43;11.43;;;;;6.80;100409.00;;;;10565741;27;20239;-80
2022/04/25 03:44:28;;;;;;;16.77;11.30;;;;;6.80;100407.00;;;;10564934;27;20248;-80
2022/04/25 03:49:30;;;;;;;20.83;13.23;;;;;6.80;100403.00;;;;10502885;28;20205;-80
2022/04/25 03:59:52;;;;;;;20.00;13.23;;;;;6.70;100411.00;;;;10512855;28;20188;-81
2022/04/25 04:04:54;;;;;;;22.17;12.80;;;;;6.70;100409.00;;;;10532418;28;20181;-81
2022/04/25 04:09:56;;;;;;;23.03;13.37;;;;;6.70;100412.00;;;;10515027;28;20193;-81
2022/04/25 04:14:58;;;;;;;20.43;13.33;;;;;6.60;100417.00;;;;10530466;28;20209;-81
2022/04/25 04:20:02;;;;;;;20.50;14.37;;;;;6.60;100418.00;;;;10496929;28;20243;-81
2022/04/25 04:25:13;;;;;;;20.27;12.97;;;;;6.60;100407.00;;;;10536145;28;20288;-81
2022/04/25 04:30:18;;;;;;;24.17;14.77;;;;;6.60;100423.00;;;;10522312;28;20200;-81
2022/04/25 04:40:40;;;;;;;26.13;14.30;;;;;6.60;100427.00;;;;10541543;28;20212;-80
2022/04/25 04:45:44;;;;;;;19.47;13.60;;;;;6.60;100433.00;;;;10490516;28;20196;-80
2022/04/25 04:50:46;;;;;;;27.10;15.20;;;;;6.70;100443.00;;;;10536285;28;20210;-81
2022/04/25 04:55:48;;;;;;;22.80;15.47;;;;;6.70;100446.00;;;;10547001;27;20243;-81
2022/04/25 05:00:50;;;;;;;25.27;15.07;;;;;6.80;100443.00;;;;10534210;28;20193;-81
2022/04/25 05:05:53;;;;;;;26.03;16.03;;;;;7.00;100454.00;;;;10518720;28;20195;-80
2022/04/25 05:10:55;;;;;;;23.73;15.63;;;;;7.10;100452.00;;;;10534324;28;20205;-81
2022/04/25 05:15:58;;;;;;;22.67;15.13;;;;;7.30;100459.00;;;;10534202;28;20642;-81
2022/04/25 05:21:00;;;;;;;23.20;15.70;;;;;7.60;100454.00;;;;10537281;27;20244;-80
2022/04/25 05:26:03;;;;;;;22.43;14.83;;;;;8.10;100452.00;;;;10502110;28;20189;-80
2022/04/25 05:31:05;;;;;;;19.70;15.07;;;;;8.40;100469.00;;;;10503655;28;20250;-80
2022/04/25 05:36:07;;;;;;;19.73;14.07;;;;;8.40;100469.00;;;;10493063;28;20727;-80
2022/04/25 05:41:09;;;;;;;22.90;13.83;;;;;8.40;100468.00;;;;10484902;28;20221;-80
2022/04/25 05:46:11;;;;;;;18.07;13.17;;;;;8.40;100482.00;;;;10494463;28;20189;-80
2022/04/25 05:56:34;;;;;;;23.93;15.00;;;;;9.40;100490.00;;;;10531691;28;20238;-80
2022/04/25 06:01:35;;;;;;;20.53;14.63;;;;;9.80;100499.00;;;;10535867;28;20222;-80
2022/04/25 06:06:38;;;;;;;22.97;14.63;;;;;10.30;100497.00;;;;10519478;28;20635;-81
2022/04/25 06:11:39;;;;;;;17.47;12.83;;;;;10.80;100502.00;;;;10552553;28;20233;-80
2022/04/25 06:16:41;;;;;;;17.03;12.80;;;;;11.20;100498.00;;;;10545940;28;20221;-80
2022/04/25 06:21:43;;;;;;;18.70;13.07;;;;;11.50;100507.00;;;;10542803;28;20691;-80
2022/04/25 06:26:47;;;;;;;23.87;13.57;;;;;12.00;100506.00;;;;10534478;28;20192;-80
2022/04/25 06:31:49;;;;;;;20.07;12.13;;;;;12.30;100513.00;;;;10517732;28;20208;-81
2022/04/25 06:36:51;;;;;;;17.47;11.13;;;;;13.00;100515.00;;;;10531859;28;20212;-81
2022/04/25 06:41:53;;;;;;;19.93;11.60;;;;;13.80;100514.00;;;;10535880;28;20220;-80
2022/04/25 06:46:55;;;;;;;17.20;11.03;;;;;14.50;100518.00;;;;10551401;28;20185;-80
2022/04/25 06:51:59;;;;;;;13.27;10.73;;;;;14.20;100530.00;;;;10518532;28;20254;-81
2022/04/25 06:57:02;;;;;;;14.90;11.07;;;;;14.20;100530.00;;;;10537088;28;20209;-80
2022/04/25 07:02:04;;;;;;;17.17;12.27;;;;;14.30;100532.00;;;;10556405;28;20218;-81
2022/04/25 07:07:06;;;;;;;19.53;12.43;;;;;13.70;100540.00;;;;10517460;28;20193;-80
2022/04/25 07:12:08;;;;;;;16.47;11.87;;;;;13.40;100533.00;;;;10496288;28;20567;-82
2022/04/25 07:17:10;;;;;;;17.30;12.10;;;;;13.60;100537.00;;;;10513410;28;20220;-82
2022/04/25 07:32:55;;;;;;;18.60;12.63;;;;;12.70;100540.00;;;;10516397;28;20222;-81
2022/04/25 07:37:57;;;;;;;17.57;12.50;;;;;12.70;100555.00;;;;10516829;28;20212;-81
2022/04/25 07:42:59;;;;;;;16.17;13.53;;;;;12.70;100552.00;;;;10520338;28;20274;-80
2022/04/25 07:48:00;;;;;;;18.73;13.03;;;;;12.70;100556.00;;;;10525094;28;20252;-81
2022/04/25 07:53:02;;;;;;;19.03;14.03;;;;;12.80;100559.00;;;;10563216;27;20241;-80
2022/04/25 07:58:07;;;;;;;20.00;15.17;;;;;13.00;100556.00;;;;10585454;27;20211;-81
2022/04/25 08:03:09;;;;;;;21.37;16.27;;;;;12.70;100568.00;;;;10515935;28;20196;-81
2022/04/25 08:08:11;;;;;;;22.03;15.47;;;;;13.20;100569.00;;;;10512105;28;20249;-81
2022/04/25 08:18:36;;;;;;;25.30;16.40;;;;;13.70;100571.00;;;;10527530;28;20682;-81
2022/04/25 08:23:40;;;;;;;25.20;15.33;;;;;13.80;100579.00;;;;10566307;27;20192;-80
2022/04/25 08:28:43;;;;;;;26.57;16.87;;;;;14.90;100575.00;;;;10583950;27;20184;-80
2022/04/25 08:34:07;;;;;;;19.27;14.40;;;;;15.50;100581.00;;;;10570479;27;20274;-81
2022/04/25 08:39:09;;;;;;;18.60;15.67;;;;;16.30;100580.00;;;;10567634;27;20839;-81
2022/04/25 08:44:15;;;;;;;21.90;16.10;;;;;17.40;100589.00;;;;10581785;27;20195;-80
2022/04/25 08:49:19;;;;;;;21.63;16.77;;;;;17.50;100593.00;;;;10546262;28;20215;-81
2022/04/25 08:54:21;;;;;;;19.33;15.63;;;;;16.70;100590.00;;;;10568715;27;20195;-81
2022/04/25 08:59:23;;;;;;;19.87;15.60;;;;;16.60;100597.00;;;;10561328;27;20208;-80
2022/04/25 09:04:25;;;;;;;16.83;15.00;;;;;16.60;100593.00;;;;10519530;28;20191;-81
2022/04/25 09:09:27;;;;;;;19.03;15.27;;;;;16.50;100603.00;;;;10553081;28;20647;-81
2022/04/25 09:14:31;;;;;;;22.63;16.53;;;;;16.10;100611.00;;;;10520735;28;20220;-80
2022/04/25 09:19:34;;;;;;;23.20;16.77;;;;;16.90;100599.00;;;;10522474;28;20194;-80
2022/04/25 09:24:44;;;;;;;16.67;13.70;;;;;18.50;100603.00;;;;10489741;28;20597;-80
2022/04/25 09:29:48;;;;;;;17.10;14.32;;;;;19.70;100594.00;;;;10547567;28;20191;-81
2022/04/25 09:35:05;;;;;;;16.35;13.57;;;;;20.00;100599.00;;;;10514950;28;20204;-80
2022/04/25 09:40:07;;;;;;;15.38;13.65;;;;;20.40;100595.00;;;;10532145;28;20219;-80
2022/04/25 09:45:09;;;;;;;15.82;13.75;;;;;20.80;100589.00;;;;10530999;28;20218;-81
2022/04/25 09:50:14;;;;;;;14.48;11.40;;;;;21.50;100591.00;;;;10531564;28;20203;-81
2022/04/25 09:55:39;;;;;;;13.23;11.68;;;;;21.80;100588.00;;;;10504881;28;20280;-81
2022/04/25 10:00:41;;;;;;;12.07;10.30;;;;;22.40;100597.00;;;;10498398;28;20200;-81
2022/04/25 10:05:52;;;;;;;11.95;10.75;;;;;22.40;100601.00;;;;10530297;28;20184;-80
2022/04/25 10:10:56;;;;;;;15.20;12.27;;;;;22.00;100592.00;;;;10529932;28;20245;-80
2022/04/25 10:15:58;;;;;;;12.63;11.30;;;;;22.10;100601.00;;;;10512787;28;20237;-80
2022/04/25 10:21:01;;;;;;;14.20;12.05;;;;;19.90;100606.00;;;;10531975;28;20204;-81
2022/04/25 10:26:03;;;;;;;14.85;11.43;;;;;19.00;100606.00;;;;10561101;28;20191;-81
2022/04/25 10:31:23;;;;;;;12.23;10.90;;;;;18.70;100600.00;;;;10594751;28;20191;-80
2022/04/25 10:36:47;;;;;;;13.52;10.93;;;;;19.20;100588.00;;;;10577984;28;20211;-81
2022/04/25 10:47:21;;;;;;;13.85;10.57;;;;;23.00;100593.00;;;;10571537;28;20204;-81
2022/04/25 10:52:42;;;;;;;10.07;9.05;;;;;20.70;100605.00;;;;10548324;28;20222;-81
2022/04/25 10:58:04;;;;;;;11.93;7.78;;;;;19.00;100605.00;;;;10546309;27;20224;-81
2022/04/25 11:03:09;;;;;;;8.13;7.28;;;;;18.20;100609.00;;;;10541198;28;20338;-81
2022/04/25 11:08:20;;;;;;;9.90;8.10;;;;;18.00;100605.00;;;;10533549;28;20197;-81
2022/04/25 11:13:25;;;;;;;9.32;7.43;;;;;17.90;100603.00;;;;10519229;28;20194;-81
2022/04/25 11:18:34;;;;;;;10.23;8.18;;;;;18.10;100602.00;;;;10504201;28;20254;-80
2022/04/25 11:23:52;;;;;;;9.57;8.57;;;;;18.10;100616.00;;;;10518215;28;20223;-80
2022/04/25 11:29:04;;;;;;;10.50;9.45;;;;;18.40;100615.00;;;;10505189;28;20189;-81
2022/04/25 11:34:11;;;;;;;11.93;10.73;;;;;19.00;100601.00;;;;10523297;28;20193;-81
2022/04/25 11:44:39;;;;;;;14.52;12.90;;;;;20.30;100600.00;;;;10515802;28;20283;-81
2022/04/25 11:49:41;;;;;;;12.40;10.57;;;;;20.10;100616.00;;;;10523336;28;20197;-80
2022/04/25 11:54:43;;;;;;;11.48;10.23;;;;;18.60;100624.00;;;;10597125;27;20198;-80
2022/04/25 11:59:45;;;;;;;11.32;10.07;;;;;18.40;100621.00;;;;10594679;27;20195;-80
2022/04/25 12:04:47;;;;;;;12.93;11.23;;;;;18.70;100625.00;;;;10539918;28;20241;-81
2022/04/25 12:15:42;;;;;;;13.73;12.25;;;;;18.60;100635.00;;;;10511263;28;20205;-81
2022/04/25 12:20:49;;;;;;;14.48;12.18;;;;;18.20;100641.00;;;;10499857;27;20191;-81
2022/04/25 12:25:53;;;;;;;17.02;14.27;;;;;17.80;100642.00;;;;10584759;27;20199;-81
2022/04/25 12:31:15;;;;;;;18.58;14.07;;;;;17.30;100638.00;;;;10568544;27;20200;-81
2022/04/25 12:36:23;;;;;;;18.88;14.98;;;;;17.20;100640.00;;;;10500100;28;20243;-82
2022/04/25 12:41:30;;;;;;;16.20;14.50;;;;;17.00;100647.00;;;;10481229;28;20718;-81
2022/04/25 12:46:44;;;;;;;17.63;14.80;;;;;17.00;100644.00;;;;10482744;28;20193;-81
2022/04/25 12:51:52;;;;;;;17.33;12.60;;;;;17.10;100640.00;;;;10513409;28;20200;-81
2022/04/25 12:57:05;;;;;;;16.88;12.77;;;;;17.20;100642.00;;;;10493642;28;20216;-80
2022/04/25 13:02:15;;;;;;;14.00;12.23;;;;;17.50;100641.00;;;;10554468;27;20199;-81
2022/04/25 13:07:25;;;;;;;14.05;12.65;;;;;18.90;100628.00;;;;10594114;27;20188;-81
2022/04/25 13:12:37;;;;;;;13.90;12.50;;;;;21.50;100629.00;;;;10576491;27;20208;-80
2022/04/25 13:17:40;;;;;;;12.82;11.45;;;;;20.70;100636.00;;;;10572690;27;20224;-82
2022/04/25 13:22:44;;;;;;;12.93;11.63;;;;;18.70;100647.00;;;;10546069;27;20196;-81
2022/04/25 13:27:46;;;;;;;14.65;11.82;;;;;17.50;100650.00;;;;10592650;27;20188;-81
2022/04/25 13:32:50;;;;;;;14.20;10.70;;;;;18.00;100650.00;;;;10610949;27;20184;-81
2022/04/25 13:37:52;;;;;;;13.05;10.60;;;;;18.40;100651.00;;;;10578733;27;20258;-81
2022/04/25 13:42:54;;;;;;;11.10;9.80;;;;;23.20;100633.00;;;;10578339;27;20224;-80
2022/04/25 13:47:56;;;;;;;11.07;9.98;;;;;22.50;100650.00;;;;10543766;28;20193;-81
2022/04/25 13:52:58;;;;;;;11.70;8.10;;;;;19.80;100650.00;;;;10515174;28;20197;-80
2022/04/25 13:58:00;;;;;;;11.05;9.32;;;;;18.20;100656.00;;;;10524940;28;20231;-81
2022/04/25 14:03:05;;;;;;;12.07;10.40;;;;;17.10;100659.00;;;;10565568;27;20653;-80
2022/04/25 14:08:09;;;;;;;13.43;10.90;;;;;16.00;100665.00;;;;10515603;28;20196;-81
2022/04/25 14:13:12;;;;;;;11.90;10.13;;;;;15.20;100665.00;;;;10493510;28;20197;-81
2022/04/25 14:18:14;;;;;;;12.03;10.40;;;;;14.80;100667.00;;;;10476002;28;20216;-81
2022/04/25 14:23:16;;;;;;;13.40;9.47;;;;;14.70;100674.00;;;;10550105;28;20249;-81
2022/04/25 14:28:17;;;;;;;12.60;10.00;;;;;14.90;100669.00;;;;10507298;28;20204;-81
2022/04/25 14:33:19;;;;;;;13.23;11.50;;;;;14.90;100670.00;;;;10515287;28;20196;-81
2022/04/25 14:38:25;;;;;;;17.90;11.47;;;;;15.30;100672.00;;;;10552086;28;20208;-81
2022/04/25 14:43:27;;;;;;;13.47;9.83;;;;;15.70;100674.00;;;;10538730;28;20766;-81
2022/04/25 14:48:30;;;;;;;14.43;9.67;;;;;15.30;100687.00;;;;10542291;28;20193;-81
2022/04/25 14:58:55;;;;;;;11.47;9.33;;;;;14.90;100687.00;;;;10574936;27;20227;-82
2022/04/25 15:03:57;;;;;;;12.50;10.33;;;;;14.40;100688.00;;;;10564736;27;20208;-80
2022/04/25 15:08:59;;;;;;;13.77;11.90;;;;;13.70;100683.00;;;;10573192;28;20195;-80
2022/04/25 15:14:01;;;;;;;12.73;10.23;;;;;12.90;100688.00;;;;10557287;28;20237;-80
2022/04/25 15:19:03;;;;;;;13.40;12.00;;;;;12.30;100704.00;;;;10557775;28;20208;-81
2022/04/25 15:24:05;;;;;;;14.17;9.87;;;;;11.80;100715.00;;;;10552836;28;20192;-80
2022/04/25 15:29:07;;;;;;;16.63;11.70;;;;;11.60;100717.00;;;;10556709;28;20188;-80
2022/04/25 15:34:09;;;;;;;13.67;11.83;;;;;11.80;100725.00;;;;10523328;28;20242;-79
2022/04/25 15:39:11;;;;;;;19.00;13.60;;;;;11.40;100717.00;;;;10514526;28;20225;-80
2022/04/25 15:44:13;;;;;;;14.47;12.43;;;;;11.20;100709.00;;;;10517573;28;20189;-79
2022/04/25 15:49:14;;;;;;;15.90;12.77;;;;;11.00;100704.00;;;;10530438;28;20203;-79
2022/04/25 15:59:37;;;;;;;17.13;14.37;;;;;11.10;100713.00;;;;10581943;27;20271;-79
2022/04/25 16:04:39;;;;;;;15.50;13.70;;;;;11.00;100717.00;;;;10597261;27;20649;-79
2022/04/25 16:09:41;;;;;;;18.20;14.93;;;;;11.20;100720.00;;;;10544805;28;20189;-79
2022/04/25 16:14:43;;;;;;;17.77;15.83;;;;;11.50;100721.00;;;;10534633;28;20200;-79
2022/04/25 16:19:45;;;;;;;17.57;14.93;;;;;11.70;100722.00;;;;10536458;28;20220;-80
2022/04/25 16:24:47;;;;;;;15.43;13.80;;;;;12.00;100728.00;;;;10559113;28;20197;-79
2022/04/25 16:29:49;;;;;;;17.23;14.70;;;;;12.10;100755.00;;;;10537371;28;20681;-79
2022/04/25 16:34:52;;;;;;;16.67;14.10;;;;;12.10;100760.00;;;;10540739;28;20225;-79
2022/04/25 16:39:53;;;;;;;13.40;12.00;;;;;11.90;100759.00;;;;10538744;28;20220;-80
2022/04/25 16:44:57;;;;;;;12.00;10.33;;;;;11.70;100757.00;;;;10538336;28;20188;-79
2022/04/25 16:49:59;;;;;;;12.50;10.57;;;;;11.70;100763.00;;;;10570761;28;20218;-79
2022/04/25 16:55:01;;;;;;;15.23;12.07;;;;;11.70;100774.00;;;;10593403;27;20220;-80
2022/04/25 17:00:04;;;;;;;13.50;11.77;;;;;11.50;100779.00;;;;10575072;27;20211;-80
2022/04/25 17:05:07;;;;;;;15.00;12.23;;;;;11.70;100778.00;;;;10520099;28;20212;-79
2022/04/25 17:10:11;;;;;;;12.40;11.10;;;;;12.10;100786.00;;;;10493590;28;20193;-79
2022/04/25 17:15:13;;;;;;;12.70;11.40;;;;;12.40;100783.00;;;;10510389;28;20216;-79
2022/04/25 17:20:15;;;;;;;11.00;9.50;;;;;12.10;100794.00;;;;10511346;28;20216;-80
2022/04/25 17:25:17;;;;;;;11.17;9.50;;;;;11.70;100801.00;;;;10585247;27;20187;-79
2022/04/25 17:30:20;;;;;;;10.33;8.37;;;;;11.30;100798.00;;;;10561717;27;20191;-79
2022/04/25 17:35:31;;;;;;;8.90;8.00;;;;;10.90;100803.00;;;;10612554;27;20192;-79
